createdAt,value
2023-04-11T00:00:28.441Z,6.95
2023-04-11T00:03:31.651Z,7.00
2023-04-11T00:06:34.634Z,7.02
2023-04-11T00:09:38.412Z,7.00
2023-04-11T00:12:41.728Z,6.92
2023-04-11T00:15:44.823Z,6.96
2023-04-11T00:18:47.938Z,6.90
2023-04-11T00:21:51.706Z,6.83
2023-04-11T00:24:55.242Z,6.80
2023-04-11T00:27:58.228Z,6.75
2023-04-11T00:31:02.111Z,6.70
2023-04-11T00:34:05.541Z,6.59
2023-04-11T00:37:08.608Z,6.53
2023-04-11T00:40:13.037Z,6.49
2023-04-11T00:43:16.142Z,6.42
2023-04-11T00:46:19.508Z,6.34
2023-04-11T00:49:22.941Z,6.30
2023-04-11T00:52:25.726Z,6.23
2023-04-11T00:55:28.521Z,6.16
2023-04-11T00:58:32.519Z,6.08
2023-04-11T01:01:36.838Z,6.13
2023-04-11T01:04:41.166Z,6.14
2023-04-11T01:07:44.780Z,6.02
2023-04-11T01:10:47.174Z,5.96
2023-04-11T01:13:50.559Z,5.94
2023-04-11T01:16:53.777Z,5.80
2023-04-11T01:19:56.333Z,5.88
2023-04-11T01:23:00.665Z,5.98
2023-04-11T01:26:02.938Z,5.99
2023-04-11T01:29:05.841Z,5.87
2023-04-11T01:32:08.798Z,5.84
2023-04-11T01:35:13.058Z,5.83
2023-04-11T01:38:16.074Z,5.82
2023-04-11T01:41:20.021Z,5.91
2023-04-11T01:44:24.248Z,5.91
2023-04-11T01:47:27.073Z,5.94
2023-04-11T01:50:30.033Z,5.91
2023-04-11T01:53:33.008Z,5.90
2023-04-11T01:56:35.739Z,5.84
2023-04-11T01:59:38.390Z,5.81
2023-04-11T02:02:41.235Z,5.80
2023-04-11T02:05:44.285Z,5.84
2023-04-11T02:08:46.878Z,5.81
2023-04-11T02:11:49.930Z,5.67
2023-04-11T02:14:53.158Z,5.61
2023-04-11T02:17:56.169Z,5.59
2023-04-11T02:20:59.027Z,5.56
2023-04-11T02:24:02.532Z,5.52
2023-04-11T02:27:05.726Z,5.43
2023-04-11T02:30:09.341Z,5.35
2023-04-11T02:33:12.931Z,5.30
2023-04-11T02:36:16.546Z,5.34
2023-04-11T02:39:25.258Z,5.44
2023-04-11T02:42:28.625Z,5.35
2023-04-11T02:45:32.191Z,5.21
2023-04-11T02:48:36.895Z,5.15
2023-04-11T02:51:39.802Z,5.13
2023-04-11T02:54:42.551Z,5.04
2023-04-11T02:57:45.565Z,5.03
2023-04-11T03:00:50.485Z,4.99
2023-04-11T03:03:53.601Z,4.94
2023-04-11T03:06:59.329Z,4.86
2023-04-11T03:10:02.313Z,4.77
2023-04-11T03:13:06.679Z,4.78
2023-04-11T03:16:14.410Z,4.71
2023-04-11T03:19:17.981Z,4.63
2023-04-11T03:22:21.037Z,4.62
2023-04-11T03:25:26.781Z,4.63
2023-04-11T03:28:30.180Z,4.69
2023-04-11T03:31:33.124Z,4.60
2023-04-11T03:34:36.163Z,4.56
2023-04-11T03:37:40.137Z,4.50
2023-04-11T03:40:43.260Z,4.48
2023-04-11T03:43:46.521Z,4.45
2023-04-11T03:46:50.047Z,4.44
2023-04-11T03:49:54.590Z,4.39
2023-04-11T03:52:57.904Z,4.50
2023-04-11T03:56:00.727Z,4.51
2023-04-11T03:59:03.750Z,4.50
2023-04-11T04:02:06.640Z,4.49
2023-04-11T04:05:10.273Z,4.49
2023-04-11T04:08:14.342Z,4.48
2023-04-11T04:11:17.444Z,4.47
2023-04-11T04:14:20.938Z,4.49
2023-04-11T04:17:25.660Z,4.50
2023-04-11T04:20:28.761Z,4.54
2023-04-11T04:23:33.181Z,4.59
2023-04-11T04:26:38.421Z,4.69
2023-04-11T04:29:53.263Z,4.86
2023-04-11T04:33:07.198Z,4.89
2023-04-11T04:36:12.952Z,4.92
2023-04-11T04:39:20.274Z,5.03
2023-04-11T04:42:24.386Z,5.11
2023-04-11T04:45:27.653Z,5.11
2023-04-11T04:48:33.639Z,5.14
2023-04-11T04:51:37.078Z,5.17
2023-04-11T04:54:40.682Z,5.32
2023-04-11T04:57:43.451Z,5.50
2023-04-11T05:00:46.974Z,5.66
2023-04-11T05:03:59.993Z,5.81
2023-04-11T05:07:04.123Z,6.17
2023-04-11T05:10:07.533Z,6.86
2023-04-11T05:13:10.158Z,7.64
2023-04-11T05:16:13.522Z,7.94
2023-04-11T05:19:16.565Z,8.22
2023-04-11T05:22:19.526Z,8.60
2023-04-11T05:25:23.576Z,9.01
2023-04-11T05:28:26.429Z,9.33
2023-04-11T05:31:29.566Z,9.47
2023-04-11T05:34:36.124Z,9.81
2023-04-11T05:37:38.798Z,10.11
2023-04-11T05:40:41.709Z,10.38
2023-04-11T05:43:44.418Z,10.65
2023-04-11T05:46:47.304Z,11.21
2023-04-11T05:49:50.165Z,11.32
2023-04-11T05:52:53.233Z,11.97
2023-04-11T05:55:57.463Z,13.27
2023-04-11T05:59:00.188Z,14.56
2023-04-11T06:02:03.017Z,15.74
2023-04-11T06:05:06.102Z,16.62
2023-04-11T06:08:09.441Z,16.42
2023-04-11T06:11:12.422Z,15.42
2023-04-11T06:14:15.201Z,14.75
2023-04-11T06:17:18.266Z,14.04
2023-04-11T06:20:21.598Z,14.23
2023-04-11T06:23:24.934Z,14.45
2023-04-11T06:26:27.838Z,14.58
2023-04-11T06:29:31.006Z,14.97
2023-04-11T06:32:36.605Z,15.20
2023-04-11T06:35:39.473Z,15.53
2023-04-11T06:38:42.742Z,15.50
2023-04-11T06:41:47.712Z,16.45
2023-04-11T06:44:50.424Z,17.62
2023-04-11T06:47:53.436Z,18.95
2023-04-11T06:50:56.372Z,20.71
2023-04-11T06:53:59.013Z,21.02
2023-04-11T06:57:02.622Z,21.64
2023-04-11T07:00:07.502Z,21.05
2023-04-11T07:03:10.777Z,20.90
2023-04-11T07:06:13.686Z,21.70
2023-04-11T07:09:16.687Z,21.93
2023-04-11T07:12:19.941Z,23.16
2023-04-11T07:15:24.163Z,23.54
2023-04-11T07:18:27.866Z,24.36
2023-04-11T07:21:34.008Z,24.88
2023-04-11T07:24:37.028Z,25.87
2023-04-11T07:27:40.708Z,26.87
2023-04-11T07:30:44.003Z,27.21
2023-04-11T07:33:46.893Z,25.73
2023-04-11T07:36:51.231Z,21.72
2023-04-11T07:39:54.510Z,19.63
2023-04-11T07:42:57.394Z,17.34
2023-04-11T07:46:00.080Z,17.07
2023-04-11T07:49:03.336Z,16.70
2023-04-11T07:52:05.928Z,16.74
2023-04-11T07:55:08.749Z,16.54
2023-04-11T07:58:11.357Z,16.31
2023-04-11T08:01:21.090Z,15.87
2023-04-11T08:04:23.890Z,15.89
2023-04-11T08:07:26.679Z,15.79
2023-04-11T08:10:29.159Z,15.71
2023-04-11T08:13:31.741Z,15.82
2023-04-11T08:16:36.326Z,15.94
2023-04-11T08:19:39.260Z,15.99
2023-04-11T08:22:51.187Z,16.13
2023-04-11T08:25:53.640Z,16.15
2023-04-11T08:28:56.472Z,16.05
2023-04-11T08:31:59.133Z,15.73
2023-04-11T08:35:01.939Z,15.58
2023-04-11T08:38:06.423Z,15.68
2023-04-11T08:41:09.587Z,15.36
2023-04-11T08:44:15.353Z,15.50
2023-04-11T08:47:18.108Z,15.66
2023-04-11T08:50:20.916Z,16.13
2023-04-11T08:53:25.309Z,16.61
2023-04-11T08:56:28.494Z,16.44
2023-04-11T08:59:31.376Z,16.38
2023-04-11T09:02:34.292Z,16.27
2023-04-11T09:05:41.332Z,16.32
2023-04-11T09:08:44.240Z,16.28
2023-04-11T09:11:56.133Z,16.50
2023-04-11T09:14:58.525Z,16.26
2023-04-11T09:18:01.386Z,16.23
2023-04-11T09:21:05.318Z,16.02
2023-04-11T09:24:16.133Z,15.95
2023-04-11T09:27:20.660Z,15.87
2023-04-11T09:30:24.453Z,16.29
2023-04-11T09:33:30.598Z,16.48
2023-04-11T09:36:32.919Z,16.66
2023-04-11T09:39:36.155Z,16.60
2023-04-11T09:42:38.535Z,16.47
2023-04-11T09:45:53.683Z,16.03
2023-04-11T09:48:59.174Z,16.29
2023-04-11T09:52:02.558Z,16.58
2023-04-11T09:55:08.638Z,16.49
2023-04-11T09:58:12.549Z,16.34
2023-04-11T10:01:16.277Z,16.42
2023-04-11T10:04:20.768Z,16.80
2023-04-11T10:07:23.791Z,16.81
2023-04-11T10:10:27.309Z,16.95
2023-04-11T10:13:36.276Z,17.17
2023-04-11T10:16:58.442Z,16.78
2023-04-11T10:20:01.184Z,17.22
2023-04-11T10:23:04.261Z,17.00
2023-04-11T10:26:09.040Z,17.26
2023-04-11T10:29:56.942Z,17.67
2023-04-11T10:33:14.743Z,17.77
2023-04-11T10:36:17.357Z,17.54
2023-04-11T10:39:40.111Z,17.35
2023-04-11T10:42:50.987Z,17.21
2023-04-11T10:46:14.129Z,17.11
2023-04-11T10:49:35.633Z,17.11
2023-04-11T10:52:39.160Z,16.82
2023-04-11T10:55:52.168Z,17.32
2023-04-11T10:58:55.474Z,17.58
2023-04-11T11:01:59.381Z,17.75
2023-04-11T11:05:02.546Z,17.91
2023-04-11T11:08:05.984Z,17.81
2023-04-11T11:11:10.084Z,17.92
2023-04-11T11:14:29.515Z,17.99
2023-04-11T11:17:33.006Z,17.89
2023-04-11T11:20:39.494Z,17.76
2023-04-11T11:24:02.762Z,17.75
2023-04-11T11:27:06.248Z,17.84
2023-04-11T11:30:12.595Z,17.96
2023-04-11T11:33:18.280Z,17.95
2023-04-11T11:36:20.725Z,17.92
2023-04-11T11:39:24.212Z,17.94
2023-04-11T11:42:28.577Z,18.16
2023-04-11T11:45:33.505Z,18.54
2023-04-11T11:48:36.682Z,18.59
2023-04-11T11:51:42.832Z,18.39
2023-04-11T11:54:48.541Z,18.91
2023-04-11T11:57:52.622Z,19.14
2023-04-11T12:00:55.902Z,18.99
2023-04-11T12:03:59.724Z,18.46
2023-04-11T12:07:10.220Z,17.78
2023-04-11T12:10:17.107Z,17.75
2023-04-11T12:13:20.887Z,18.10
2023-04-11T12:16:24.527Z,18.26
2023-04-11T12:19:28.102Z,18.79
2023-04-11T12:22:31.622Z,19.19
2023-04-11T12:25:34.289Z,19.08
2023-04-11T12:28:37.222Z,18.75
2023-04-11T12:31:39.599Z,19.27
2023-04-11T12:34:42.643Z,19.47
2023-04-11T12:37:45.839Z,19.58
2023-04-11T12:40:48.358Z,19.24
2023-04-11T12:43:51.200Z,19.17
2023-04-11T12:46:53.609Z,18.79
2023-04-11T12:49:56.465Z,18.62
2023-04-11T12:52:59.549Z,18.48
2023-04-11T12:56:02.594Z,18.32
2023-04-11T12:59:05.738Z,18.05
2023-04-11T13:02:08.539Z,18.28
2023-04-11T13:05:12.331Z,18.41
2023-04-11T13:08:15.128Z,18.51
2023-04-11T13:11:17.942Z,18.50
2023-04-11T13:14:20.797Z,18.44
2023-04-11T13:17:23.617Z,18.16
2023-04-11T13:20:26.914Z,18.24
2023-04-11T13:23:29.485Z,18.10
2023-04-11T13:26:32.045Z,17.85
2023-04-11T13:29:35.157Z,17.58
2023-04-11T13:32:38.204Z,17.52
2023-04-11T13:35:41.796Z,17.61
2023-04-11T13:38:46.057Z,17.57
2023-04-11T13:41:49.588Z,17.81
2023-04-11T13:44:52.275Z,17.90
2023-04-11T13:47:55.055Z,17.95
2023-04-11T13:50:58.434Z,17.94
2023-04-11T13:54:02.163Z,17.76
2023-04-11T13:57:08.125Z,17.59
2023-04-11T14:00:14.062Z,17.49
2023-04-11T14:03:17.152Z,17.51
2023-04-11T14:06:20.593Z,17.53
2023-04-11T14:09:23.484Z,17.41
2023-04-11T14:12:27.582Z,17.27
2023-04-11T14:15:32.015Z,17.01
2023-04-11T14:18:35.202Z,16.87
2023-04-11T14:21:38.709Z,16.72
2023-04-11T14:24:42.739Z,16.72
2023-04-11T14:27:46.343Z,16.78
2023-04-11T14:30:49.751Z,16.78
2023-04-11T14:33:54.674Z,16.73
2023-04-11T14:36:57.488Z,16.61
2023-04-11T14:40:00.843Z,16.52
2023-04-11T14:43:04.658Z,16.27
2023-04-11T14:46:08.459Z,16.15
2023-04-11T14:49:11.472Z,15.85
2023-04-11T14:52:15.765Z,15.71
2023-04-11T14:55:20.814Z,15.38
2023-04-11T14:58:24.736Z,15.30
2023-04-11T15:01:27.749Z,15.17
2023-04-11T15:04:30.993Z,14.86
2023-04-11T15:07:34.010Z,14.81
2023-04-11T15:10:37.397Z,14.70
2023-04-11T15:13:41.114Z,14.36
2023-04-11T15:16:44.629Z,13.96
2023-04-11T15:19:48.340Z,13.41
2023-04-11T15:22:51.441Z,12.84
2023-04-11T15:25:55.488Z,12.21
2023-04-11T15:28:58.729Z,11.89
2023-04-11T15:32:03.059Z,11.60
2023-04-11T15:35:07.378Z,11.31
2023-04-11T15:38:11.202Z,11.16
2023-04-11T15:41:14.691Z,10.73
2023-04-11T15:44:17.771Z,10.67
2023-04-11T15:47:21.017Z,10.71
2023-04-11T15:50:24.287Z,10.70
2023-04-11T15:53:28.397Z,10.56
2023-04-11T15:56:34.456Z,10.49
2023-04-11T15:59:38.373Z,10.36
2023-04-11T16:02:44.902Z,10.50
2023-04-11T16:05:51.716Z,10.39
2023-04-11T16:08:55.427Z,10.22
2023-04-11T16:11:58.847Z,10.04
2023-04-11T16:15:01.886Z,10.05
2023-04-11T16:18:05.363Z,10.11
2023-04-11T16:21:15.200Z,10.13
2023-04-11T16:24:20.013Z,10.13
2023-04-11T16:27:23.124Z,10.13
2023-04-11T16:30:28.870Z,10.10
2023-04-11T16:33:32.030Z,10.18
2023-04-11T16:36:35.382Z,10.21
2023-04-11T16:39:38.878Z,10.21
2023-04-11T16:42:41.776Z,10.29
2023-04-11T16:45:45.807Z,10.37
2023-04-11T16:48:48.867Z,10.45
2023-04-11T16:51:52.053Z,10.52
2023-04-11T16:54:55.617Z,10.67
2023-04-11T16:57:58.667Z,10.72
2023-04-11T17:01:02.942Z,10.80
2023-04-11T17:04:06.991Z,10.92
2023-04-11T17:07:11.410Z,10.96
2023-04-11T17:10:16.056Z,11.01
2023-04-11T17:13:20.672Z,11.00
2023-04-11T17:16:23.437Z,10.93
2023-04-11T17:19:27.074Z,10.82
2023-04-11T17:22:30.889Z,10.76
2023-04-11T17:25:33.863Z,10.84
2023-04-11T17:28:37.369Z,10.84
2023-04-11T17:31:40.645Z,10.86
2023-04-11T17:34:44.675Z,10.83
2023-04-11T17:37:48.792Z,10.81
2023-04-11T17:40:55.487Z,10.81
2023-04-11T17:44:01.964Z,10.71
2023-04-11T17:47:06.160Z,10.70
2023-04-11T17:50:10.897Z,10.58
2023-04-11T17:53:14.234Z,10.57
2023-04-11T17:56:17.524Z,10.53
2023-04-11T17:59:22.136Z,10.52
2023-04-11T18:02:26.576Z,10.56
2023-04-11T18:05:34.962Z,10.56
2023-04-11T18:08:49.995Z,10.55
2023-04-11T18:11:54.167Z,10.51
2023-04-11T18:14:57.872Z,10.46
2023-04-11T18:18:02.157Z,10.42
2023-04-11T18:21:06.666Z,10.41
2023-04-11T18:24:11.774Z,10.32
2023-04-11T18:27:16.072Z,10.30
2023-04-11T18:30:19.899Z,10.31
2023-04-11T18:33:23.986Z,10.26
2023-04-11T18:36:28.300Z,10.19
2023-04-11T18:39:31.854Z,10.13
2023-04-11T18:42:35.659Z,10.17
2023-04-11T18:45:41.788Z,10.12
2023-04-11T18:48:45.628Z,10.10
2023-04-11T18:51:49.005Z,10.07
2023-04-11T18:54:52.841Z,10.05
2023-04-11T18:57:58.098Z,10.10
2023-04-11T19:01:14.601Z,10.09
2023-04-11T19:04:19.746Z,10.06
2023-04-11T19:07:24.342Z,10.04
2023-04-11T19:10:27.748Z,10.01
2023-04-11T19:13:30.751Z,10.01
2023-04-11T19:16:34.486Z,9.98
2023-04-11T19:19:37.730Z,9.90
2023-04-11T19:22:41.799Z,9.86
2023-04-11T19:25:44.677Z,9.77
2023-04-11T19:28:47.437Z,9.69
2023-04-11T19:31:50.418Z,9.61
2023-04-11T19:34:54.432Z,9.57
2023-04-11T19:38:01.054Z,9.55
2023-04-11T19:41:15.479Z,9.59
2023-04-11T19:44:18.662Z,9.58
2023-04-11T19:47:21.967Z,9.53
2023-04-11T19:50:24.966Z,9.48
2023-04-11T19:53:30.728Z,9.47
2023-04-11T19:56:34.209Z,9.52
2023-04-11T19:59:37.527Z,9.48
2023-04-11T20:02:47.945Z,9.44
2023-04-11T20:05:52.208Z,9.42
2023-04-11T20:08:55.719Z,9.39
2023-04-11T20:11:58.376Z,9.29
2023-04-11T20:15:01.897Z,9.25
2023-04-11T20:18:05.128Z,9.25
2023-04-11T20:21:10.624Z,9.30
2023-04-11T20:24:13.211Z,9.36
2023-04-11T20:27:17.245Z,9.41
2023-04-11T20:30:21.170Z,9.42
2023-04-11T20:33:24.277Z,9.37
2023-04-11T20:36:28.391Z,9.27
2023-04-11T20:39:34.440Z,9.12
2023-04-11T20:42:41.770Z,8.98
2023-04-11T20:45:46.337Z,8.87
2023-04-11T20:48:50.782Z,8.81
2023-04-11T20:51:54.270Z,8.80
2023-04-11T20:54:57.378Z,8.82
2023-04-11T20:57:59.961Z,8.84
2023-04-11T21:01:02.764Z,8.84
2023-04-11T21:04:05.770Z,8.80
2023-04-11T21:07:09.000Z,8.76
2023-04-11T21:10:13.152Z,8.66
2023-04-11T21:13:17.169Z,8.60
2023-04-11T21:16:20.110Z,8.59
2023-04-11T21:19:23.861Z,8.62
2023-04-11T21:22:26.954Z,8.55
2023-04-11T21:25:30.251Z,8.40
2023-04-11T21:28:34.352Z,8.35
2023-04-11T21:31:36.943Z,8.29
2023-04-11T21:34:39.474Z,8.30
2023-04-11T21:37:42.346Z,8.30
2023-04-11T21:40:45.181Z,8.43
2023-04-11T21:43:48.177Z,8.42
2023-04-11T21:46:51.312Z,8.39
2023-04-11T21:49:54.560Z,8.30
2023-04-11T21:52:59.085Z,8.31
2023-04-11T21:56:02.502Z,8.25
2023-04-11T21:59:06.099Z,8.19
2023-04-11T22:02:09.819Z,8.07
2023-04-11T22:05:14.987Z,8.07
2023-04-11T22:08:23.305Z,8.01
2023-04-11T22:11:26.779Z,7.91
2023-04-11T22:14:31.153Z,7.87
2023-04-11T22:17:33.884Z,7.83
2023-04-11T22:20:39.317Z,7.79
2023-04-11T22:23:45.092Z,7.72
2023-04-11T22:26:49.643Z,7.68
2023-04-11T22:29:53.203Z,7.65
2023-04-11T22:32:56.187Z,7.71
2023-04-11T22:35:59.461Z,7.62
2023-04-11T22:39:05.399Z,7.63
2023-04-11T22:42:08.559Z,7.57
2023-04-11T22:45:12.423Z,7.54
2023-04-11T22:48:15.493Z,7.49
2023-04-11T22:51:18.296Z,7.49
2023-04-11T22:54:22.192Z,7.46
2023-04-11T22:57:25.180Z,7.35
2023-04-11T23:00:28.172Z,7.34
2023-04-11T23:03:31.636Z,7.22
2023-04-11T23:06:34.636Z,7.20
2023-04-11T23:09:38.195Z,7.17
2023-04-11T23:12:42.454Z,7.13
2023-04-11T23:15:47.846Z,7.14
2023-04-11T23:18:51.242Z,7.10
2023-04-11T23:21:55.576Z,7.09
2023-04-11T23:25:00.120Z,7.04
2023-04-11T23:28:03.238Z,7.10
2023-04-11T23:31:06.621Z,7.01
2023-04-11T23:34:09.362Z,7.08
2023-04-11T23:37:12.662Z,7.01
2023-04-11T23:40:15.772Z,7.04
2023-04-11T23:43:19.474Z,6.95
2023-04-11T23:46:22.414Z,6.94
2023-04-11T23:49:25.291Z,6.95
2023-04-11T23:52:30.030Z,6.98
2023-04-11T23:55:32.891Z,6.92
2023-04-11T23:58:35.753Z,6.66
